CheckWX is a tool to help pilots better visualize weather data.  It is not intended as a substitute for an official pre-flight weather briefing.

08:52:00 UTC

KQFW METAR
Hongcheon
Hongcheon, South Korea
Current

12 mins ago

KQFW 220840Z AUTO 22003G13KT 9999 SCT230 26/01 A2964 RMK A02 TSNO
Observed
May-22 @ 08:40 UTC
Wind
  • 220° at 3 KTS
  • Gusting to 13 KTS
Visibility
10,000+ meters
Flight Rules
VFR
Cloud Levels
  • Scattered at 23,000' AGL
Temperature
26°C / 79°F
Dewpoint
C / 34°F
Humidity
20%
Altimeter
29.64" Hg
Pressure
1003.72 hPa
Previous

22 mins ago

KQFW 220830Z AUTO 22005G13KT 9999 BKN230 26/01 A2964 RMK A02 TSNO
Observed
May-22 @ 08:30 UTC
Wind
  • 220° at 5 KTS
  • Gusting to 13 KTS
Visibility
10,000+ meters
Flight Rules
VFR
Cloud Levels
  • Broken at 23,000' AGL
Temperature
26°C / 79°F
Dewpoint
C / 34°F
Humidity
20%
Altimeter
29.64" Hg
Pressure
1003.72 hPa
Previous

32 mins ago

KQFW 220820Z AUTO 22003G12KT 9999 FEW200 SCT230 26/01 A2963 RMK A02 TSNO
Observed
May-22 @ 08:20 UTC
Wind
  • 220° at 3 KTS
  • Gusting to 12 KTS
Visibility
10,000+ meters
Flight Rules
VFR
Cloud Levels
  • Few at 20,000' AGL
  • Scattered at 23,000' AGL
Temperature
26°C / 79°F
Dewpoint
C / 34°F
Humidity
20%
Altimeter
29.63" Hg
Pressure
1003.42 hPa